TAF and METAR

Could not understand the following METAR

PAIW 061156Z AUTO 03019G26KT 10SM OVC012 06/04 A2952 RMK AO2 PK WND 01027/1136 SLP997 7//// T00560039 10072 20056 56013
No TAF available for Wales Airport